Warner, Ohio
Current Conditions -  °F | °C
As of 6:53 PM on Sunday 23 Nov 2014 (Local Time) from KPKB Reporting Station
Light Rain Light Rain  
Wind Chill: 59°   Ceiling: 9000
Heat Index: 59°   Visibility: 10mi
Dew Point: 44°   Wind: 10mph
Humidity: 58%   Direction: 140°SE
Pressure: 29.71"   Gusts: 18mph
Location:  39.6083°N, 81.3498°W
Report Text: KPKB 232353Z 14009G16KT 110V170 10SM -RA OVC090 15/07 A2971 RMK AO2 RAB2259E08B44 SLP060 P0000 60000 T01500067 10194 20150 58037
Loading
Personal Weather Stations






























Interactive Weather Map New forecast layout! Learn more

10-Day Weather Forecast

Advertisements
Track Severe Weather on mobile